createdAt,value
2019-03-28T00:18:18.073Z,16.93
2019-03-28T00:20:48.160Z,16.13
2019-03-28T00:23:35.602Z,17.23
2019-03-28T00:26:04.821Z,17.93
2019-03-28T00:28:34.753Z,20.87
2019-03-28T00:31:04.035Z,28.20
2019-03-28T00:33:34.006Z,20.97
2019-03-28T00:36:04.690Z,19.90
2019-03-28T00:38:34.381Z,18.90
2019-03-28T00:41:04.064Z,17.07
2019-03-28T00:43:33.269Z,23.03
2019-03-28T00:46:02.861Z,21.17
2019-03-28T00:48:32.649Z,16.67
2019-03-28T00:51:02.577Z,17.90
2019-03-28T00:53:31.891Z,20.53
2019-03-28T00:56:01.050Z,24.00
2019-03-28T00:58:30.414Z,23.53
2019-03-28T01:00:59.686Z,20.20
2019-03-28T01:03:29.440Z,21.77
2019-03-28T01:05:58.679Z,21.70
2019-03-28T01:08:29.649Z,20.30
2019-03-28T01:10:58.986Z,19.90
2019-03-28T01:13:28.415Z,21.13
2019-03-28T01:15:57.869Z,22.00
2019-03-28T01:18:27.363Z,21.03
2019-03-28T01:20:56.767Z,22.47
2019-03-28T01:23:26.203Z,23.13
2019-03-28T01:25:55.812Z,20.47
2019-03-28T01:28:25.144Z,21.83
2019-03-28T01:30:54.472Z,21.87
2019-03-28T01:33:24.033Z,21.03
2019-03-28T01:35:56.054Z,21.07
2019-03-28T01:38:27.547Z,21.57
2019-03-28T01:40:56.807Z,21.80
2019-03-28T01:43:29.030Z,23.50
2019-03-28T01:45:58.298Z,20.90
2019-03-28T01:48:27.688Z,21.90
2019-03-28T01:50:57.084Z,23.43
2019-03-28T01:53:26.591Z,22.90
2019-03-28T01:55:59.156Z,22.37
2019-03-28T01:58:28.587Z,23.63
2019-03-28T02:00:57.899Z,22.17
2019-03-28T02:03:27.389Z,22.80
2019-03-28T02:05:57.524Z,27.67
2019-03-28T02:08:26.823Z,26.83
2019-03-28T02:10:56.516Z,29.43
2019-03-28T02:13:26.277Z,30.03
2019-03-28T02:15:55.641Z,28.30
2019-03-28T02:18:24.868Z,30.53
2019-03-28T02:20:58.129Z,29.60
2019-03-28T02:23:30.781Z,39.83
2019-03-28T02:26:02.201Z,37.23
2019-03-28T02:28:34.632Z,30.47
2019-03-28T02:31:04.037Z,28.13
2019-03-28T02:33:33.285Z,38.43
2019-03-28T02:36:03.672Z,32.10
2019-03-28T02:38:33.468Z,33.83
2019-03-28T02:41:02.947Z,34.27
2019-03-28T02:43:35.057Z,36.73
2019-03-28T02:46:04.353Z,41.67
2019-03-28T02:48:35.598Z,35.80
2019-03-28T02:51:04.998Z,33.43
2019-03-28T02:53:34.347Z,37.90
2019-03-28T02:56:04.246Z,43.93
2019-03-28T02:58:33.479Z,35.30
2019-03-28T03:01:02.729Z,33.40
2019-03-28T03:03:33.017Z,22.47
2019-03-28T03:06:02.158Z,45.50
2019-03-28T03:08:32.075Z,46.70
2019-03-28T03:11:01.165Z,43.33
2019-03-28T03:13:30.375Z,44.37
2019-03-28T03:16:00.132Z,43.43
2019-03-28T03:18:30.746Z,44.93
2019-03-28T03:21:04.403Z,45.70
2019-03-28T03:23:41.417Z,55.73
2019-03-28T03:26:12.213Z,43.83
2019-03-28T03:28:43.587Z,39.67
2019-03-28T03:31:20.326Z,54.27
2019-03-28T03:33:45.339Z,43.90
2019-03-28T03:36:16.509Z,48.13
2019-03-28T03:38:47.694Z,52.73
2019-03-28T03:41:18.565Z,51.80
2019-03-28T03:43:47.819Z,54.30
2019-03-28T03:46:21.950Z,45.27
2019-03-28T03:48:51.815Z,49.67
2019-03-28T03:51:24.590Z,48.97
2019-03-28T03:53:54.234Z,52.50
2019-03-28T03:56:25.294Z,47.70
2019-03-28T03:58:55.627Z,50.33
2019-03-28T04:01:31.403Z,38.63
2019-03-28T04:03:59.051Z,56.57
2019-03-28T04:06:28.444Z,55.90
2019-03-28T04:08:57.741Z,63.33
2019-03-28T04:11:27.857Z,54.97
2019-03-28T04:13:57.817Z,60.23
2019-03-28T04:16:29.413Z,56.00
2019-03-28T04:18:58.798Z,67.33
2019-03-28T04:21:28.680Z,60.63
2019-03-28T04:23:58.544Z,65.07
2019-03-28T04:26:28.339Z,71.87
2019-03-28T04:28:58.221Z,67.17
2019-03-28T04:31:28.379Z,65.97
2019-03-28T04:33:58.872Z,69.50
2019-03-28T04:36:28.772Z,55.27
2019-03-28T04:38:59.613Z,82.47
2019-03-28T04:41:29.791Z,89.40
2019-03-28T04:43:59.642Z,56.60
2019-03-28T04:46:29.377Z,73.20
2019-03-28T04:48:58.934Z,82.73
2019-03-28T04:51:29.294Z,76.00
2019-03-28T04:53:58.580Z,86.33
2019-03-28T04:56:29.949Z,56.30
2019-03-28T04:59:00.619Z,65.07
2019-03-28T05:01:31.867Z,74.37
2019-03-28T05:04:01.740Z,71.40
2019-03-28T05:06:32.262Z,45.30
2019-03-28T05:09:02.188Z,136.00
2019-03-28T05:11:32.109Z,56.47
2019-03-28T05:14:01.795Z,57.93
2019-03-28T05:16:30.998Z,77.67
2019-03-28T05:19:00.340Z,96.13
2019-03-28T05:21:30.150Z,70.43
2019-03-28T05:24:00.548Z,78.57
2019-03-28T05:26:29.730Z,90.57
2019-03-28T05:28:59.447Z,73.13
2019-03-28T05:31:34.315Z,83.83
2019-03-28T05:34:04.153Z,82.33
2019-03-28T05:36:33.396Z,113.07
2019-03-28T05:39:03.109Z,102.87
2019-03-28T05:41:32.639Z,94.57
2019-03-28T05:44:07.231Z,83.93
2019-03-28T05:46:40.663Z,115.73
2019-03-28T05:49:11.550Z,57.60
2019-03-28T05:51:40.775Z,113.67
2019-03-28T05:54:11.425Z,98.20
2019-03-28T05:56:40.886Z,46.63
2019-03-28T05:59:11.695Z,96.10
2019-03-28T06:01:49.142Z,118.37
2019-03-28T06:04:18.487Z,78.90
2019-03-28T06:06:48.058Z,75.17
2019-03-28T06:09:20.263Z,95.77
2019-03-28T06:11:52.795Z,63.57
2019-03-28T06:14:21.455Z,71.00
2019-03-28T06:16:50.619Z,102.93
2019-03-28T06:19:19.892Z,83.00
2019-03-28T06:21:49.284Z,88.50
2019-03-28T06:24:18.695Z,84.37
2019-03-28T06:26:49.954Z,66.73
2019-03-28T06:29:24.102Z,165.23
2019-03-28T06:31:55.440Z,81.63
2019-03-28T06:34:23.789Z,78.67
2019-03-28T06:36:53.110Z,96.70
2019-03-28T06:39:22.588Z,72.27
2019-03-28T06:41:51.811Z,77.27
2019-03-28T06:44:21.785Z,111.10
2019-03-28T06:46:50.969Z,66.87
2019-03-28T06:49:20.346Z,80.53
2019-03-28T06:51:49.667Z,70.40
2019-03-28T06:54:18.881Z,61.87
2019-03-28T06:56:48.031Z,65.47
2019-03-28T06:59:17.214Z,68.30
2019-03-28T07:01:46.457Z,46.53
2019-03-28T07:04:15.651Z,52.80
2019-03-28T07:06:44.944Z,74.60
2019-03-28T07:09:14.095Z,39.47
2019-03-28T07:11:43.233Z,64.87
2019-03-28T07:14:12.290Z,60.33
2019-03-28T07:16:42.740Z,51.50
2019-03-28T07:19:12.131Z,47.30
2019-03-28T07:21:41.516Z,62.00
2019-03-28T07:24:10.698Z,43.93
2019-03-28T07:26:41.099Z,38.20
2019-03-28T07:29:10.370Z,35.27
2019-03-28T07:31:40.518Z,62.37
2019-03-28T07:34:10.040Z,54.03
2019-03-28T07:36:39.170Z,46.37
2019-03-28T07:39:09.078Z,64.10
2019-03-28T07:41:38.861Z,30.83
2019-03-28T07:44:08.116Z,43.13
2019-03-28T07:46:37.980Z,58.77
2019-03-28T07:49:10.128Z,90.40
2019-03-28T07:51:45.169Z,58.67
2019-03-28T07:54:14.840Z,59.50
2019-03-28T07:56:46.620Z,58.00
2019-03-28T07:59:16.837Z,43.80
2019-03-28T08:02:06.944Z,35.03
2019-03-28T08:04:37.514Z,46.63
2019-03-28T08:07:06.672Z,35.90
2019-03-28T08:09:36.744Z,54.37
2019-03-28T08:12:21.386Z,57.77
2019-03-28T08:14:38.576Z,63.17
2019-03-28T08:17:07.924Z,51.47
2019-03-28T08:22:29.718Z,36.80
2019-03-28T08:24:57.956Z,38.50
2019-03-28T08:27:27.188Z,41.87
2019-03-28T08:29:57.794Z,56.10
2019-03-28T08:32:27.932Z,37.60
2019-03-28T08:34:57.103Z,41.63
2019-03-28T08:37:26.252Z,38.80
2019-03-28T08:40:01.834Z,28.77
2019-03-28T08:42:30.885Z,35.97
2019-03-28T08:45:00.048Z,35.10
2019-03-28T08:47:29.191Z,32.20
2019-03-28T08:49:58.816Z,30.43
2019-03-28T08:52:28.091Z,44.20
2019-03-28T08:54:57.357Z,28.40
2019-03-28T08:57:29.804Z,29.13
2019-03-28T08:59:59.049Z,25.07
2019-03-28T09:02:28.100Z,26.23
2019-03-28T09:04:58.274Z,28.03
2019-03-28T09:07:27.888Z,18.93
2019-03-28T09:09:57.043Z,24.47
2019-03-28T09:12:26.331Z,23.00
2019-03-28T09:14:55.875Z,28.23
2019-03-28T09:17:26.482Z,23.67
2019-03-28T09:19:55.678Z,21.07
2019-03-28T09:22:25.151Z,14.00
2019-03-28T09:24:54.668Z,21.27
2019-03-28T09:27:24.192Z,13.50
2019-03-28T09:29:54.682Z,23.43
2019-03-28T09:32:25.825Z,19.90
2019-03-28T09:35:04.025Z,19.23
2019-03-28T09:37:33.141Z,20.77
2019-03-28T09:40:03.134Z,14.83
2019-03-28T09:42:32.220Z,21.17
2019-03-28T09:45:01.550Z,23.53
2019-03-28T09:47:33.748Z,20.90
2019-03-28T09:50:03.013Z,17.73
2019-03-28T09:52:32.159Z,18.37
2019-03-28T09:55:03.053Z,14.03
2019-03-28T09:57:32.175Z,16.07
2019-03-28T10:00:01.563Z,23.27
2019-03-28T10:02:31.457Z,17.27
2019-03-28T10:05:00.674Z,17.47
2019-03-28T10:07:32.582Z,14.80
2019-03-28T10:10:03.008Z,18.00
2019-03-28T10:12:34.385Z,18.73
2019-03-28T10:15:05.201Z,17.40
2019-03-28T10:17:34.828Z,18.20
2019-03-28T10:20:05.705Z,19.77
2019-03-28T10:22:35.552Z,15.43
2019-03-28T10:25:04.985Z,10.53
2019-03-28T10:27:34.199Z,16.40
2019-03-28T10:30:03.382Z,19.23
2019-03-28T10:32:33.547Z,15.47
2019-03-28T10:35:02.913Z,15.93
2019-03-28T10:37:32.490Z,14.37
2019-03-28T10:40:01.610Z,13.13
2019-03-28T10:42:30.882Z,12.80
2019-03-28T10:45:01.708Z,14.77
2019-03-28T10:47:31.448Z,13.83
2019-03-28T10:50:04.270Z,10.83
2019-03-28T10:52:35.800Z,12.37
2019-03-28T10:55:05.053Z,15.37
2019-03-28T10:57:37.647Z,14.37
2019-03-28T11:00:07.006Z,15.43
2019-03-28T11:02:36.520Z,9.70
2019-03-28T11:05:07.183Z,15.47
2019-03-28T11:07:36.676Z,14.27
2019-03-28T11:10:08.472Z,11.13
2019-03-28T11:12:37.527Z,9.53
2019-03-28T11:15:06.966Z,12.33
2019-03-28T11:17:36.183Z,14.20
2019-03-28T11:20:07.724Z,10.90
2019-03-28T11:22:37.000Z,8.83
2019-03-28T11:25:06.704Z,8.07
2019-03-28T11:27:36.188Z,11.10
2019-03-28T11:30:06.256Z,11.63
2019-03-28T11:32:35.991Z,8.93
2019-03-28T11:35:06.740Z,12.53
2019-03-28T11:37:36.754Z,17.07
2019-03-28T11:40:15.034Z,9.57
2019-03-28T11:42:47.013Z,11.27
2019-03-28T11:45:16.546Z,11.57
2019-03-28T11:47:48.437Z,10.90
2019-03-28T11:50:23.531Z,9.40
2019-03-28T11:52:52.746Z,9.30
2019-03-28T11:55:22.339Z,10.73
2019-03-28T11:57:51.591Z,9.80
2019-03-28T12:00:21.871Z,10.00
2019-03-28T12:02:52.564Z,10.47
2019-03-28T12:05:41.749Z,13.00
2019-03-28T12:08:37.066Z,11.17
2019-03-28T12:11:10.873Z,10.03
2019-03-28T12:14:07.026Z,14.33
2019-03-28T12:16:51.203Z,10.10
2019-03-28T12:19:30.123Z,12.47
2019-03-28T12:21:59.458Z,11.97
2019-03-28T12:24:29.237Z,13.90
2019-03-28T12:26:59.256Z,13.97
2019-03-28T12:29:29.349Z,9.20
2019-03-28T12:32:13.444Z,15.10
2019-03-28T12:34:38.484Z,12.67
2019-03-28T12:37:12.714Z,13.77
2019-03-28T12:39:43.381Z,13.90
2019-03-28T12:42:12.986Z,15.60
2019-03-28T12:44:56.050Z,16.40
2019-03-28T12:47:13.153Z,13.33
2019-03-28T12:49:42.419Z,13.20
2019-03-28T12:52:12.148Z,13.97
2019-03-28T12:54:44.080Z,13.23
2019-03-28T12:57:14.365Z,13.87
2019-03-28T12:59:44.103Z,14.77
2019-03-28T13:02:27.139Z,15.53
2019-03-28T13:04:44.941Z,13.40
2019-03-28T13:07:14.685Z,14.50
2019-03-28T13:09:45.619Z,15.27
2019-03-28T13:12:15.057Z,14.33
2019-03-28T13:14:44.542Z,14.53
2019-03-28T13:17:14.144Z,12.33
2019-03-28T13:19:44.928Z,19.07
2019-03-28T13:22:14.111Z,14.77
2019-03-28T13:24:43.390Z,14.23
2019-03-28T13:27:13.516Z,12.43
2019-03-28T13:29:44.925Z,12.70
2019-03-28T13:32:14.187Z,10.60
2019-03-28T13:34:43.426Z,15.93
2019-03-28T13:37:12.463Z,16.27
2019-03-28T13:39:42.891Z,12.63
2019-03-28T13:42:12.603Z,10.23
2019-03-28T13:44:41.933Z,13.80
2019-03-28T13:47:11.599Z,14.80
2019-03-28T13:49:41.228Z,12.87
2019-03-28T13:52:10.689Z,10.30
2019-03-28T13:54:39.859Z,12.23
2019-03-28T13:57:09.009Z,24.87
2019-03-28T13:59:38.361Z,14.80
2019-03-28T14:02:07.584Z,16.50
2019-03-28T14:04:37.056Z,16.50
2019-03-28T14:07:06.349Z,14.30
2019-03-28T14:09:36.194Z,14.97
2019-03-28T14:12:05.516Z,13.97
2019-03-28T14:14:34.683Z,14.07
2019-03-28T14:17:03.918Z,19.27
2019-03-28T14:19:35.130Z,12.63
2019-03-28T14:22:04.268Z,11.63
2019-03-28T14:24:33.488Z,13.37
2019-03-28T14:27:02.738Z,14.67
2019-03-28T14:29:31.955Z,17.57
2019-03-28T14:32:03.573Z,20.40
2019-03-28T14:34:32.754Z,25.13
2019-03-28T14:37:01.805Z,18.50
2019-03-28T14:39:31.381Z,23.33
2019-03-28T14:42:00.608Z,26.67
2019-03-28T14:44:29.941Z,26.30
2019-03-28T14:46:59.645Z,21.43
2019-03-28T14:49:29.077Z,27.97
2019-03-28T14:51:59.117Z,18.37
2019-03-28T14:54:28.185Z,18.80
2019-03-28T14:56:57.393Z,22.23
2019-03-28T14:59:32.794Z,20.10
2019-03-28T15:01:58.853Z,15.33
2019-03-28T15:04:28.129Z,20.73
2019-03-28T15:06:57.268Z,19.00
2019-03-28T15:09:26.573Z,17.93
2019-03-28T15:11:55.902Z,18.43
2019-03-28T15:14:25.554Z,22.73
2019-03-28T15:16:54.749Z,20.93
2019-03-28T15:19:24.346Z,26.60
2019-03-28T15:21:53.730Z,21.47
2019-03-28T15:24:23.235Z,23.83
2019-03-28T15:26:53.032Z,22.70
2019-03-28T15:29:22.267Z,25.40
2019-03-28T15:31:51.440Z,25.10
2019-03-28T15:34:22.133Z,15.63
2019-03-28T15:36:51.368Z,21.50
2019-03-28T15:39:20.705Z,30.80
2019-03-28T15:41:50.286Z,30.50
2019-03-28T15:44:19.479Z,24.57
2019-03-28T15:46:49.287Z,26.87
2019-03-28T15:49:18.601Z,22.77
2019-03-28T15:51:47.750Z,22.67
2019-03-28T15:54:17.199Z,22.57
2019-03-28T15:56:47.124Z,27.33
2019-03-28T15:59:18.338Z,17.13
2019-03-28T16:01:47.878Z,22.70
2019-03-28T16:04:17.212Z,13.47
2019-03-28T16:06:46.533Z,21.53
2019-03-28T16:09:18.483Z,16.63
2019-03-28T16:12:02.045Z,15.80
2019-03-28T16:14:23.315Z,14.17
2019-03-28T16:16:53.181Z,11.90
2019-03-28T16:19:23.710Z,14.53
2019-03-28T16:21:53.273Z,14.00
2019-03-28T16:24:23.649Z,10.90
2019-03-28T16:26:53.077Z,8.73
2019-03-28T16:29:22.576Z,8.90
2019-03-28T16:31:52.341Z,12.40
2019-03-28T16:34:21.683Z,9.33
2019-03-28T16:36:51.935Z,11.93
2019-03-28T16:39:22.539Z,13.03
2019-03-28T16:41:53.938Z,10.60
2019-03-28T16:44:23.417Z,12.83
2019-03-28T16:46:52.790Z,9.67
2019-03-28T16:49:22.011Z,11.00
2019-03-28T16:51:51.829Z,10.27
2019-03-28T16:54:21.289Z,10.83
2019-03-28T16:56:53.121Z,12.70
2019-03-28T16:59:22.988Z,11.23
2019-03-28T17:01:52.152Z,12.33
2019-03-28T17:04:22.858Z,13.67
2019-03-28T17:06:52.281Z,14.93
2019-03-28T17:09:23.200Z,16.30
2019-03-28T17:11:52.797Z,16.07
2019-03-28T17:14:22.651Z,12.60
2019-03-28T17:16:51.864Z,13.70
2019-03-28T17:19:21.091Z,15.47
2019-03-28T17:21:50.749Z,15.17
2019-03-28T17:24:19.991Z,16.70
2019-03-28T17:26:49.374Z,18.30
2019-03-28T17:29:18.691Z,13.50
2019-03-28T17:31:47.940Z,16.27
2019-03-28T17:34:17.605Z,20.60
2019-03-28T17:36:48.751Z,23.77
2019-03-28T17:39:19.725Z,20.47
2019-03-28T17:41:50.154Z,20.10
2019-03-28T17:44:19.851Z,18.93
2019-03-28T17:46:49.831Z,21.40
2019-03-28T17:49:19.243Z,20.97
2019-03-28T17:51:51.324Z,21.80
2019-03-28T17:54:21.000Z,18.83
2019-03-28T17:56:50.542Z,17.47
2019-03-28T17:59:20.880Z,17.00
2019-03-28T18:01:50.325Z,23.37
2019-03-28T18:04:23.147Z,19.20
2019-03-28T18:06:53.735Z,21.10
2019-03-28T18:09:23.889Z,18.30
2019-03-28T18:11:56.787Z,21.77
2019-03-28T18:14:27.814Z,18.50
2019-03-28T18:16:57.661Z,20.53
2019-03-28T18:19:29.729Z,35.77
2019-03-28T18:22:03.805Z,20.07
2019-03-28T18:24:30.541Z,24.17
2019-03-28T18:27:01.070Z,25.10
2019-03-28T18:29:30.498Z,20.47
2019-03-28T18:32:03.020Z,22.03
2019-03-28T18:34:33.770Z,31.90
2019-03-28T18:37:03.664Z,21.10
2019-03-28T18:39:33.160Z,19.07
2019-03-28T18:42:03.450Z,29.00
2019-03-28T18:44:33.203Z,28.20
2019-03-28T18:47:03.402Z,30.90
2019-03-28T18:49:32.754Z,32.40
2019-03-28T18:52:03.628Z,29.97
2019-03-28T18:54:35.104Z,25.57
2019-03-28T18:57:04.693Z,34.77
2019-03-28T18:59:34.489Z,33.43
2019-03-28T19:02:04.058Z,26.30
2019-03-28T19:04:34.794Z,24.97
2019-03-28T19:07:04.685Z,27.87
2019-03-28T19:09:34.409Z,26.50
2019-03-28T19:12:04.531Z,27.63
2019-03-28T19:14:34.356Z,20.07
2019-03-28T19:17:04.462Z,29.33
2019-03-28T19:19:39.621Z,23.97
2019-03-28T19:22:04.979Z,31.83
2019-03-28T19:24:34.427Z,33.97
2019-03-28T19:27:03.956Z,30.90
2019-03-28T19:29:33.454Z,40.47
2019-03-28T19:32:02.894Z,44.20
2019-03-28T19:34:33.096Z,45.50
2019-03-28T19:37:33.030Z,49.20
2019-03-28T19:40:03.008Z,74.37
2019-03-28T19:42:42.714Z,56.10
2019-03-28T19:45:36.469Z,63.17
2019-03-28T19:48:15.453Z,72.27
2019-03-28T19:50:51.089Z,64.37
2019-03-28T19:53:21.052Z,67.30
2019-03-28T19:55:50.627Z,70.00
2019-03-28T19:58:23.590Z,56.13
2019-03-28T20:01:08.182Z,44.67
2019-03-28T20:03:37.772Z,60.80
2019-03-28T20:06:21.321Z,62.30
2019-03-28T20:08:39.033Z,48.90
2019-03-28T20:11:08.884Z,42.10
2019-03-28T20:13:39.287Z,47.47
2019-03-28T20:16:08.989Z,66.93
2019-03-28T20:18:38.515Z,66.47
2019-03-28T20:21:09.927Z,41.97
2019-03-28T20:23:40.595Z,41.77
2019-03-28T20:26:10.462Z,55.70
2019-03-28T20:28:40.355Z,64.93
2019-03-28T20:31:10.395Z,66.53
2019-03-28T20:33:44.487Z,66.80
2019-03-28T20:36:36.318Z,60.67
2019-03-28T20:38:48.624Z,57.27
2019-03-28T20:41:18.036Z,53.27
2019-03-28T20:43:48.321Z,67.77
2019-03-28T20:46:20.575Z,64.90
2019-03-28T20:48:49.189Z,66.80
2019-03-28T20:51:18.988Z,60.53
2019-03-28T20:53:51.243Z,63.87
2019-03-28T20:56:22.534Z,76.13
2019-03-28T20:58:52.089Z,48.97
2019-03-28T21:01:21.336Z,71.23
2019-03-28T21:03:52.338Z,75.40
2019-03-28T21:06:29.803Z,76.03
2019-03-28T21:09:01.671Z,61.13
2019-03-28T21:11:34.350Z,51.30
2019-03-28T21:14:04.350Z,62.37
2019-03-28T21:16:34.666Z,76.03
2019-03-28T21:19:08.587Z,68.80
2019-03-28T21:21:45.400Z,93.97
2019-03-28T21:24:26.154Z,171.37
2019-03-28T21:27:01.521Z,109.83
2019-03-28T21:29:34.060Z,91.43
2019-03-28T21:32:06.210Z,88.10
2019-03-28T21:34:39.239Z,90.97
2019-03-28T21:37:08.675Z,94.27
2019-03-28T21:39:40.134Z,85.50
2019-03-28T21:42:08.747Z,81.60
2019-03-28T21:44:44.651Z,91.43
2019-03-28T21:47:14.772Z,70.20
2019-03-28T21:49:45.508Z,97.47
2019-03-28T21:52:15.669Z,73.27
2019-03-28T21:54:45.899Z,72.73
2019-03-28T21:57:15.751Z,113.10
2019-03-28T21:59:49.609Z,61.90
2019-03-28T22:02:20.643Z,91.23
2019-03-28T22:04:49.954Z,92.23
2019-03-28T22:07:20.131Z,91.17
2019-03-28T22:09:49.390Z,89.27
2019-03-28T22:12:19.690Z,83.80
2019-03-28T22:14:49.062Z,67.47
2019-03-28T22:17:19.162Z,66.93
2019-03-28T22:20:03.496Z,67.33
2019-03-28T22:22:39.767Z,64.50
2019-03-28T22:25:09.400Z,48.53
2019-03-28T22:27:40.738Z,60.87
2019-03-28T22:30:10.400Z,68.53
2019-03-28T22:32:39.770Z,72.90
2019-03-28T22:35:09.366Z,48.73
2019-03-28T22:37:39.023Z,66.30
2019-03-28T22:40:12.002Z,48.37
2019-03-28T22:42:43.145Z,76.63
2019-03-28T22:45:17.975Z,76.77
2019-03-28T22:47:48.512Z,70.50
2019-03-28T22:50:17.939Z,81.03
2019-03-28T22:52:47.559Z,56.50
2019-03-28T22:55:18.409Z,75.70
2019-03-28T22:57:49.349Z,56.53
2019-03-28T23:00:20.386Z,83.77
2019-03-28T23:02:50.536Z,76.13
2019-03-28T23:05:20.164Z,83.93
2019-03-28T23:07:49.592Z,99.97
2019-03-28T23:10:21.075Z,100.77
2019-03-28T23:12:50.657Z,71.03
2019-03-28T23:15:21.943Z,123.13
2019-03-28T23:17:50.751Z,62.57
2019-03-28T23:20:20.134Z,92.57
2019-03-28T23:22:49.439Z,90.93
2019-03-28T23:25:19.036Z,119.03
2019-03-28T23:27:49.976Z,62.00
2019-03-28T23:30:19.399Z,125.40
2019-03-28T23:32:48.747Z,151.30
2019-03-28T23:35:20.225Z,129.13
2019-03-28T23:37:49.836Z,105.70
2019-03-28T23:40:21.532Z,123.20
2019-03-28T23:42:50.713Z,115.57
2019-03-28T23:45:21.435Z,127.47
2019-03-28T23:47:50.628Z,112.20
2019-03-28T23:50:20.245Z,128.60
2019-03-28T23:52:49.406Z,112.10
2019-03-28T23:55:19.241Z,124.70
2019-03-28T23:57:48.509Z,88.40
